Time;durP1;ratioP1;P1;durP2;ratioP2;P2;SDS_P1;SDS_P2;PMS_P1;PMS_P2;Temp;Humidity;BMP_temperature;BMP_pressure;BME280_temperature;BME280_humidity;BME280_pressure;Samples;Min_cycle;Max_cycle;Signal;HPM_P1;HPM_P2
2023/12/21 00:00:13;;;;;;;;;;;2.70;99.90;;;;;;5019057;28;19929;-58
2023/12/21 00:02:39;;;;;;;;;;;2.70;99.90;;;;;;5017481;28;19925;-61
2023/12/21 00:05:06;;;;;;;;;;;2.70;99.90;;;;;;5007516;28;20005;-59
2023/12/21 00:07:33;;;;;;;;;;;2.60;99.90;;;;;;5007003;28;19940;-59
2023/12/21 00:10:00;;;;;;;;;;;2.60;99.90;;;;;;5009536;28;19929;-61
2023/12/21 00:12:27;;;;;;;;;;;2.60;99.90;;;;;;5013920;28;19983;-60
2023/12/21 00:14:54;;;;;;;;;;;2.60;99.90;;;;;;5013432;28;20346;-59
2023/12/21 00:17:21;;;;;;;;;;;2.60;99.90;;;;;;5015973;28;19972;-61
2023/12/21 00:19:48;;;;;;;;;;;2.60;99.90;;;;;;5015125;28;20142;-59
2023/12/21 00:22:14;;;;;;;;;;;2.60;99.90;;;;;;5016971;28;19971;-58
2023/12/21 00:24:41;;;;;;;;;;;2.50;99.90;;;;;;5013121;28;19930;-61
2023/12/21 00:27:08;;;;;;;;;;;2.50;99.90;;;;;;5018158;28;19963;-61
2023/12/21 00:29:35;;;;;;;;;;;2.60;99.90;;;;;;5005628;28;20321;-60
2023/12/21 00:32:02;;;;;;;;;;;2.50;99.90;;;;;;5007504;28;20444;-65
2023/12/21 00:34:29;;;;;;;;;;;2.50;99.90;;;;;;5013338;28;20643;-58
2023/12/21 00:36:56;;;;;;;;;;;2.50;99.90;;;;;;5010902;28;19936;-58
2023/12/21 00:39:23;;;;;;;;;;;2.50;99.90;;;;;;5009710;28;19925;-62
2023/12/21 00:41:53;;;;;;;;;;;2.50;99.90;;;;;;5015732;28;20016;-59
2023/12/21 00:44:20;;;;;;;;;;;2.50;99.90;;;;;;5015907;28;19925;-59
2023/12/21 00:46:47;;;;;;;;;;;2.40;99.90;;;;;;5020758;28;20322;-59
2023/12/21 00:49:14;;;;;;;;;;;2.40;99.90;;;;;;5016286;28;19968;-63
2023/12/21 00:51:40;;;;;;;;;;;2.40;99.90;;;;;;5014073;28;19953;-61
2023/12/21 00:54:07;;;;;;;;;;;2.40;99.90;;;;;;5003559;28;20024;-67
2023/12/21 00:56:34;;;;;;;;;;;2.40;99.90;;;;;;5006880;28;20364;-58
2023/12/21 00:59:03;;;;;;;;;;;2.40;99.90;;;;;;5006248;28;19933;-59
2023/12/21 01:01:31;;;;;;;;;;;2.40;99.90;;;;;;5013097;28;19940;-60
2023/12/21 01:03:57;;;;;;;;;;;2.30;99.90;;;;;;5014611;28;19929;-58
2023/12/21 01:06:24;;;;;;;;;;;2.30;99.90;;;;;;5014333;28;19925;-57
2023/12/21 01:08:51;;;;;;;;;;;2.30;99.90;;;;;;5013341;28;20311;-58
2023/12/21 01:11:18;;;;;;;;;;;2.30;99.90;;;;;;5018773;28;20027;-59
2023/12/21 01:13:45;;;;;;;;;;;2.30;99.90;;;;;;5014274;28;20327;-58
2023/12/21 01:16:14;;;;;;;;;;;2.30;99.90;;;;;;5006726;28;19926;-58
2023/12/21 01:18:41;;;;;;;;;;;2.20;99.90;;;;;;5003092;28;19929;-59
2023/12/21 01:21:08;;;;;;;;;;;2.20;99.90;;;;;;5007021;28;19938;-58
2023/12/21 01:23:35;;;;;;;;;;;2.20;99.90;;;;;;5011926;28;19965;-59
2023/12/21 01:26:02;;;;;;;;;;;2.20;99.90;;;;;;5013112;28;19938;-61
2023/12/21 01:28:29;;;;;;;;;;;2.20;99.90;;;;;;5006748;28;19975;-58
2023/12/21 01:30:56;;;;;;;;;;;2.20;99.90;;;;;;5008437;28;19930;-60
2023/12/21 01:33:23;;;;;;;;;;;2.20;99.90;;;;;;5017935;28;19925;-60
2023/12/21 01:35:49;;;;;;;;;;;2.10;99.90;;;;;;5009197;28;19977;-60
2023/12/21 01:38:16;;;;;;;;;;;2.20;99.90;;;;;;5015994;28;19929;-60
2023/12/21 01:40:43;;;;;;;;;;;2.20;99.90;;;;;;5009188;28;19937;-59
2023/12/21 01:43:10;;;;;;;;;;;2.10;99.90;;;;;;5009477;28;19925;-60
2023/12/21 01:45:37;;;;;;;;;;;2.20;99.90;;;;;;5011828;28;20040;-64
2023/12/21 01:48:04;;;;;;;;;;;2.20;99.90;;;;;;5012747;28;20516;-59
2023/12/21 01:50:31;;;;;;;;;;;2.20;99.90;;;;;;5008899;28;20452;-60
2023/12/21 01:52:58;;;;;;;;;;;2.20;99.90;;;;;;5013751;28;19929;-63
2023/12/21 01:55:27;;;;;;;;;;;2.20;99.90;;;;;;5001676;28;20261;-61
2023/12/21 01:57:54;;;;;;;;;;;2.20;99.90;;;;;;5014785;28;19961;-61
2023/12/21 02:00:21;;;;;;;;;;;2.20;99.90;;;;;;5017550;28;19929;-62
2023/12/21 02:02:50;;;;;;;;;;;2.20;99.90;;;;;;5006053;28;19937;-60
2023/12/21 02:05:17;;;;;;;;;;;2.20;99.90;;;;;;5003105;28;19925;-61
2023/12/21 02:07:44;;;;;;;;;;;2.20;99.90;;;;;;5006314;28;19991;-63
2023/12/21 02:10:10;;;;;;;;;;;2.20;99.90;;;;;;5010993;28;19936;-59
2023/12/21 02:12:37;;;;;;;;;;;2.30;99.90;;;;;;5009962;28;19925;-60
2023/12/21 02:15:05;;;;;;;;;;;2.30;99.90;;;;;;5010683;28;19933;-63
2023/12/21 02:17:33;;;;;;;;;;;2.30;99.90;;;;;;5013711;28;19947;-65
2023/12/21 02:20:00;;;;;;;;;;;2.30;99.90;;;;;;5013556;28;19931;-58
2023/12/21 02:22:28;;;;;;;;;;;2.30;99.90;;;;;;5017010;28;19965;-63
2023/12/21 02:24:55;;;;;;;;;;;2.30;99.90;;;;;;5012485;28;19978;-59
2023/12/21 02:27:22;;;;;;;;;;;2.30;99.90;;;;;;4993295;28;20015;-60
2023/12/21 02:29:49;;;;;;;;;;;2.30;99.90;;;;;;5006369;28;19929;-60
2023/12/21 02:32:16;;;;;;;;;;;2.30;99.90;;;;;;5009607;28;19957;-57
2023/12/21 02:34:43;;;;;;;;;;;2.30;99.90;;;;;;5013453;28;19932;-59
2023/12/21 02:37:10;;;;;;;;;;;2.40;99.90;;;;;;5017022;28;19936;-63
2023/12/21 02:39:36;;;;;;;;;;;2.40;99.90;;;;;;5008214;28;19968;-58
2023/12/21 02:42:04;;;;;;;;;;;2.40;99.90;;;;;;5021759;28;20046;-58
2023/12/21 02:44:30;;;;;;;;;;;2.40;99.90;;;;;;5012342;28;19933;-62
2023/12/21 02:46:58;;;;;;;;;;;2.40;99.90;;;;;;5010201;28;19930;-63
2023/12/21 02:49:25;;;;;;;;;;;2.40;99.90;;;;;;4998228;28;20296;-59
2023/12/21 02:51:52;;;;;;;;;;;2.40;99.90;;;;;;5005695;28;19926;-61
2023/12/21 02:54:19;;;;;;;;;;;2.40;99.90;;;;;;5007559;28;20602;-61
2023/12/21 02:56:45;;;;;;;;;;;2.40;99.90;;;;;;5006289;28;20418;-61
2023/12/21 02:59:12;;;;;;;;;;;2.40;99.90;;;;;;5010830;28;20012;-64
2023/12/21 03:01:40;;;;;;;;;;;2.30;99.90;;;;;;5015065;28;19935;-58
2023/12/21 03:04:07;;;;;;;;;;;2.30;99.90;;;;;;5012772;28;19979;-57
2023/12/21 03:06:33;;;;;;;;;;;2.30;99.90;;;;;;5013555;28;20282;-62
2023/12/21 03:09:00;;;;;;;;;;;2.40;99.90;;;;;;5020027;28;20024;-60
2023/12/21 03:11:27;;;;;;;;;;;2.40;99.90;;;;;;5015347;28;20030;-62
2023/12/21 03:13:54;;;;;;;;;;;2.40;99.90;;;;;;5010414;28;20379;-60
2023/12/21 03:16:21;;;;;;;;;;;2.40;99.90;;;;;;5010493;28;20826;-59
2023/12/21 03:18:47;;;;;;;;;;;2.40;99.90;;;;;;5011772;28;19925;-58
2023/12/21 03:21:17;;;;;;;;;;;2.40;99.90;;;;;;5012668;28;20008;-60
2023/12/21 03:23:44;;;;;;;;;;;2.40;99.90;;;;;;5015178;28;19926;-60
2023/12/21 03:26:11;;;;;;;;;;;2.40;99.90;;;;;;5012719;28;20442;-61
2023/12/21 03:28:44;;;;;;;;;;;2.40;99.90;;;;;;5014473;28;19933;-64
2023/12/21 03:31:11;;;;;;;;;;;2.40;99.90;;;;;;5017679;28;19996;-60
2023/12/21 03:33:38;;;;;;;;;;;2.40;99.90;;;;;;5022943;28;20428;-58
2023/12/21 03:36:05;;;;;;;;;;;2.40;99.90;;;;;;5011569;28;20343;-59
2023/12/21 03:38:32;;;;;;;;;;;2.40;99.90;;;;;;5012353;28;19947;-60
2023/12/21 03:40:59;;;;;;;;;;;2.40;99.90;;;;;;5007874;28;19949;-60
2023/12/21 03:43:26;;;;;;;;;;;2.40;99.90;;;;;;4994524;28;19957;-62
2023/12/21 03:45:56;;;;;;;;;;;2.40;99.90;;;;;;5011970;28;19925;-61
2023/12/21 03:48:24;;;;;;;;;;;2.40;99.90;;;;;;5014058;28;19940;-62
2023/12/21 03:50:51;;;;;;;;;;;2.40;99.90;;;;;;5008845;28;19934;-60
2023/12/21 03:53:18;;;;;;;;;;;2.40;99.90;;;;;;5014470;28;19929;-62
2023/12/21 03:55:44;;;;;;;;;;;2.40;99.90;;;;;;5008201;28;20430;-57
2023/12/21 03:58:11;;;;;;;;;;;2.50;99.90;;;;;;5015134;28;19929;-58
2023/12/21 04:00:38;;;;;;;;;;;2.40;99.90;;;;;;5010388;28;19984;-59
2023/12/21 04:03:05;;;;;;;;;;;2.40;99.90;;;;;;5013046;28;20024;-58
2023/12/21 04:05:32;;;;;;;;;;;2.50;99.90;;;;;;5009014;28;19925;-63
2023/12/21 04:07:59;;;;;;;;;;;2.50;99.90;;;;;;5013720;28;19936;-60
2023/12/21 04:10:25;;;;;;;;;;;2.60;99.90;;;;;;5009387;28;20326;-62
2023/12/21 04:12:52;;;;;;;;;;;2.50;99.90;;;;;;5011117;28;19964;-65
2023/12/21 04:15:19;;;;;;;;;;;2.60;99.90;;;;;;5017689;28;19960;-60
2023/12/21 04:17:46;;;;;;;;;;;2.60;99.90;;;;;;5017159;28;19925;-58
2023/12/21 04:20:13;;;;;;;;;;;2.60;99.90;;;;;;5019942;28;20410;-59
2023/12/21 04:22:39;;;;;;;;;;;2.60;99.90;;;;;;5017467;28;19929;-59
2023/12/21 04:25:07;;;;;;;;;;;2.50;99.90;;;;;;5002787;28;19925;-61
2023/12/21 04:27:34;;;;;;;;;;;2.50;99.90;;;;;;5004934;28;20717;-61
2023/12/21 04:30:01;;;;;;;;;;;2.50;99.90;;;;;;5010830;28;20044;-58
2023/12/21 04:32:28;;;;;;;;;;;2.60;99.90;;;;;;5015114;28;19929;-62
2023/12/21 04:34:55;;;;;;;;;;;2.60;99.90;;;;;;5012942;28;19929;-59
2023/12/21 04:37:22;;;;;;;;;;;2.50;99.90;;;;;;5015050;28;19925;-62
2023/12/21 04:39:49;;;;;;;;;;;2.50;99.90;;;;;;5019041;28;19945;-62
2023/12/21 04:42:16;;;;;;;;;;;2.50;99.90;;;;;;5016363;28;19925;-59
2023/12/21 04:44:42;;;;;;;;;;;2.60;99.90;;;;;;5014676;28;19976;-59
2023/12/21 04:47:10;;;;;;;;;;;2.60;99.90;;;;;;5013515;28;19929;-60
2023/12/21 04:49:49;;;;;;;;;;;2.60;99.90;;;;;;5008592;28;19969;-59
2023/12/21 04:52:16;;;;;;;;;;;2.60;99.90;;;;;;5010035;28;19929;-61
2023/12/21 04:54:44;;;;;;;;;;;2.60;99.90;;;;;;5005908;28;19926;-60
2023/12/21 04:57:11;;;;;;;;;;;2.50;99.90;;;;;;5009433;28;19939;-60
2023/12/21 04:59:39;;;;;;;;;;;2.50;99.90;;;;;;5006590;28;19929;-58
2023/12/21 05:02:06;;;;;;;;;;;2.50;99.90;;;;;;5010767;28;19933;-59
2023/12/21 05:04:32;;;;;;;;;;;2.50;99.90;;;;;;5019598;28;20075;-57
2023/12/21 05:06:59;;;;;;;;;;;2.50;99.90;;;;;;5008391;28;20005;-60
2023/12/21 05:09:26;;;;;;;;;;;2.50;99.90;;;;;;5021654;28;19926;-63
2023/12/21 05:11:53;;;;;;;;;;;2.50;99.90;;;;;;5005598;28;20290;-57
2023/12/21 05:14:20;;;;;;;;;;;2.50;99.90;;;;;;5006827;28;19925;-61
2023/12/21 05:16:49;;;;;;;;;;;2.50;99.90;;;;;;5007670;28;19929;-59
2023/12/21 05:19:16;;;;;;;;;;;2.50;99.90;;;;;;5009192;28;19976;-62
2023/12/21 05:21:43;;;;;;;;;;;2.50;99.90;;;;;;5011276;28;19930;-58
2023/12/21 05:24:10;;;;;;;;;;;2.50;99.90;;;;;;5012598;28;19933;-58
2023/12/21 05:26:37;;;;;;;;;;;2.50;99.90;;;;;;5014083;28;19936;-60
2023/12/21 05:29:04;;;;;;;;;;;2.50;99.90;;;;;;5011397;28;20558;-61
2023/12/21 05:31:30;;;;;;;;;;;2.50;99.90;;;;;;5007658;28;20019;-58
2023/12/21 05:33:57;;;;;;;;;;;2.40;99.90;;;;;;5006849;28;20024;-57
2023/12/21 05:36:24;;;;;;;;;;;2.40;99.90;;;;;;4999845;28;19957;-58
2023/12/21 05:38:52;;;;;;;;;;;2.40;99.90;;;;;;5005440;28;19956;-61
2023/12/21 05:41:19;;;;;;;;;;;2.40;99.90;;;;;;5005976;28;19929;-61
2023/12/21 05:43:46;;;;;;;;;;;2.40;99.90;;;;;;5012561;28;20003;-58
2023/12/21 05:46:13;;;;;;;;;;;2.40;99.90;;;;;;5011699;28;19968;-60
2023/12/21 05:48:40;;;;;;;;;;;2.40;99.90;;;;;;5010240;28;19936;-64
2023/12/21 05:51:07;;;;;;;;;;;2.50;99.90;;;;;;5007869;28;19944;-59
2023/12/21 05:53:34;;;;;;;;;;;2.40;99.90;;;;;;5015215;28;19933;-59
2023/12/21 05:56:02;;;;;;;;;;;2.40;99.90;;;;;;5020396;28;19987;-58
2023/12/21 05:58:29;;;;;;;;;;;2.40;99.90;;;;;;5001869;28;19933;-58
2023/12/21 06:00:56;;;;;;;;;;;2.40;99.90;;;;;;5009417;28;19925;-59
2023/12/21 06:03:23;;;;;;;;;;;2.40;99.90;;;;;;5007384;28;19929;-61
2023/12/21 06:05:50;;;;;;;;;;;2.40;99.90;;;;;;5002416;28;19936;-62
2023/12/21 06:08:17;;;;;;;;;;;2.40;99.90;;;;;;5005818;28;20017;-59
2023/12/21 06:10:44;;;;;;;;;;;2.40;99.90;;;;;;5014327;28;19933;-59
2023/12/21 06:13:11;;;;;;;;;;;2.40;99.90;;;;;;5010292;28;20028;-58
2023/12/21 06:15:37;;;;;;;;;;;2.30;99.90;;;;;;5005379;28;20283;-61
2023/12/21 06:18:04;;;;;;;;;;;2.30;99.90;;;;;;5012627;28;19929;-61
2023/12/21 06:20:35;;;;;;;;;;;2.30;99.90;;;;;;5001771;28;20540;-59
2023/12/21 06:23:02;;;;;;;;;;;2.20;99.90;;;;;;5004723;28;19929;-61
2023/12/21 06:25:29;;;;;;;;;;;2.20;99.90;;;;;;5001058;28;19925;-60
2023/12/21 06:27:56;;;;;;;;;;;2.20;99.90;;;;;;5002433;28;20035;-60
2023/12/21 06:30:23;;;;;;;;;;;2.10;99.90;;;;;;5001496;28;20413;-63
2023/12/21 06:32:49;;;;;;;;;;;2.10;99.90;;;;;;5003900;28;19946;-60
2023/12/21 06:35:17;;;;;;;;;;;2.00;99.90;;;;;;5008162;28;20023;-63
2023/12/21 06:37:44;;;;;;;;;;;2.10;99.90;;;;;;5009463;28;19925;-60
2023/12/21 06:40:11;;;;;;;;;;;2.10;99.90;;;;;;5010540;28;19947;-60
2023/12/21 06:42:38;;;;;;;;;;;2.10;99.90;;;;;;5009149;28;19936;-61
2023/12/21 06:45:05;;;;;;;;;;;2.10;99.90;;;;;;5009630;28;19937;-58
2023/12/21 06:47:32;;;;;;;;;;;2.20;99.90;;;;;;5000734;28;21049;-61
2023/12/21 06:49:58;;;;;;;;;;;2.20;99.90;;;;;;5005579;28;19948;-59
2023/12/21 06:52:25;;;;;;;;;;;2.30;99.90;;;;;;5006019;28;19925;-60
2023/12/21 06:54:52;;;;;;;;;;;2.30;99.90;;;;;;5011128;28;19933;-60
2023/12/21 06:57:19;;;;;;;;;;;2.40;99.90;;;;;;5008150;28;19952;-59
2023/12/21 06:59:46;;;;;;;;;;;2.40;99.90;;;;;;5012031;28;19971;-60
2023/12/21 07:02:12;;;;;;;;;;;2.40;99.90;;;;;;5011933;28;20603;-60
2023/12/21 07:04:39;;;;;;;;;;;2.50;99.90;;;;;;5018846;28;20609;-61
2023/12/21 07:07:06;;;;;;;;;;;2.40;99.90;;;;;;5010168;28;20450;-59
2023/12/21 07:09:33;;;;;;;;;;;2.50;99.90;;;;;;4994079;28;19929;-67
2023/12/21 07:12:00;;;;;;;;;;;2.50;99.90;;;;;;5006802;28;19956;-58
2023/12/21 07:14:27;;;;;;;;;;;2.50;99.90;;;;;;5006442;28;19932;-62
2023/12/21 07:16:54;;;;;;;;;;;2.40;99.90;;;;;;5011176;28;19929;-61
2023/12/21 07:19:21;;;;;;;;;;;2.40;99.90;;;;;;5012791;28;20020;-59
2023/12/21 07:21:48;;;;;;;;;;;2.40;99.90;;;;;;5017891;28;19941;-59
2023/12/21 07:24:14;;;;;;;;;;;2.40;99.90;;;;;;5017472;28;19936;-65
2023/12/21 07:26:41;;;;;;;;;;;2.40;99.90;;;;;;5012666;28;20024;-59
2023/12/21 07:29:08;;;;;;;;;;;2.40;99.90;;;;;;5013191;28;19933;-65
2023/12/21 07:31:35;;;;;;;;;;;2.40;99.90;;;;;;5009285;28;19933;-62
2023/12/21 07:34:02;;;;;;;;;;;2.40;99.90;;;;;;5009623;28;20036;-61
2023/12/21 07:36:32;;;;;;;;;;;2.40;99.90;;;;;;5002301;28;20410;-59
2023/12/21 07:38:58;;;;;;;;;;;2.40;99.90;;;;;;5006421;28;19926;-60
2023/12/21 07:41:25;;;;;;;;;;;2.40;99.90;;;;;;5008797;28;19930;-60
2023/12/21 07:43:52;;;;;;;;;;;2.40;99.90;;;;;;5014320;28;19929;-60
2023/12/21 07:46:21;;;;;;;;;;;2.40;99.90;;;;;;5012875;28;20016;-59
2023/12/21 07:48:48;;;;;;;;;;;2.40;99.90;;;;;;5012382;28;19940;-60
2023/12/21 07:51:15;;;;;;;;;;;2.40;99.90;;;;;;5014645;28;19965;-60
2023/12/21 07:53:42;;;;;;;;;;;2.50;99.90;;;;;;5017126;28;19928;-59
2023/12/21 07:56:09;;;;;;;;;;;2.50;99.90;;;;;;5005915;28;20039;-60
2023/12/21 07:58:36;;;;;;;;;;;2.50;99.90;;;;;;5003741;28;19987;-60
2023/12/21 08:01:03;;;;;;;;;;;2.50;99.90;;;;;;5005223;28;19940;-60
2023/12/21 08:03:30;;;;;;;;;;;2.50;99.90;;;;;;5009605;28;20036;-64
2023/12/21 08:05:57;;;;;;;;;;;2.50;99.90;;;;;;5005096;28;19992;-59
2023/12/21 08:08:24;;;;;;;;;;;2.60;99.90;;;;;;5013295;28;20302;-61
2023/12/21 08:10:50;;;;;;;;;;;2.50;99.90;;;;;;5014690;28;20380;-60
2023/12/21 08:13:18;;;;;;;;;;;2.60;99.90;;;;;;5006166;28;19936;-61
2023/12/21 08:15:44;;;;;;;;;;;2.60;99.90;;;;;;5018245;28;19929;-62
2023/12/21 08:18:13;;;;;;;;;;;2.60;99.90;;;;;;5012388;28;20036;-59
2023/12/21 08:20:47;;;;;;;;;;;2.60;99.90;;;;;;4999744;28;19930;-60
2023/12/21 08:23:14;;;;;;;;;;;2.60;99.90;;;;;;4990001;28;19951;-60
2023/12/21 08:25:41;;;;;;;;;;;2.60;99.90;;;;;;5006119;28;20032;-59
2023/12/21 08:28:07;;;;;;;;;;;2.60;99.90;;;;;;5009672;28;19941;-61
2023/12/21 08:30:34;;;;;;;;;;;2.70;99.90;;;;;;5012529;28;20658;-59
2023/12/21 08:33:02;;;;;;;;;;;2.70;99.90;;;;;;5012703;28;19929;-60
2023/12/21 08:35:29;;;;;;;;;;;2.70;99.90;;;;;;5012972;28;19936;-61
2023/12/21 08:37:59;;;;;;;;;;;2.70;99.90;;;;;;5004553;28;19960;-58
2023/12/21 08:40:26;;;;;;;;;;;2.80;99.90;;;;;;5008568;28;19936;-58
2023/12/21 08:42:52;;;;;;;;;;;2.80;99.90;;;;;;5000141;28;19959;-60
2023/12/21 08:45:19;;;;;;;;;;;2.80;99.90;;;;;;5002889;28;19929;-60
2023/12/21 08:47:46;;;;;;;;;;;2.80;99.90;;;;;;5009219;28;19953;-60
2023/12/21 08:50:13;;;;;;;;;;;2.80;99.90;;;;;;5011577;28;19933;-59
2023/12/21 08:52:41;;;;;;;;;;;2.80;99.90;;;;;;5007837;28;20059;-60
2023/12/21 08:55:09;;;;;;;;;;;2.90;99.90;;;;;;5004740;28;19929;-60
2023/12/21 08:57:38;;;;;;;;;;;2.90;99.90;;;;;;5006849;28;19929;-59
2023/12/21 09:00:06;;;;;;;;;;;2.90;99.90;;;;;;5012567;28;19933;-58
2023/12/21 09:02:34;;;;;;;;;;;2.90;99.90;;;;;;5016819;28;19929;-59
2023/12/21 09:05:02;;;;;;;;;;;2.90;99.90;;;;;;5000574;28;19937;-61
2023/12/21 09:07:29;;;;;;;;;;;3.00;99.90;;;;;;5007022;28;19929;-61
2023/12/21 09:09:56;;;;;;;;;;;3.00;99.90;;;;;;5002277;28;20063;-62
2023/12/21 09:12:23;;;;;;;;;;;3.00;99.90;;;;;;5009861;28;19983;-63
2023/12/21 09:14:50;;;;;;;;;;;3.00;99.90;;;;;;5008840;28;19940;-60
2023/12/21 09:17:18;;;;;;;;;;;3.00;99.90;;;;;;5008567;28;19968;-60
2023/12/21 09:19:45;;;;;;;;;;;3.00;99.90;;;;;;5007689;28;20041;-59
2023/12/21 09:22:12;;;;;;;;;;;3.00;99.90;;;;;;5010118;28;19960;-61
2023/12/21 09:24:39;;;;;;;;;;;3.00;99.90;;;;;;5012843;28;19933;-59
2023/12/21 09:27:06;;;;;;;;;;;3.00;99.90;;;;;;5016623;28;19961;-61
2023/12/21 09:29:33;;;;;;;;;;;3.00;99.90;;;;;;5002724;28;20708;-59
2023/12/21 09:31:59;;;;;;;;;;;3.00;99.90;;;;;;5005413;28;19968;-59
2023/12/21 09:34:27;;;;;;;;;;;3.00;99.90;;;;;;5002262;28;20028;-59
2023/12/21 09:36:54;;;;;;;;;;;3.10;99.90;;;;;;5006690;28;19930;-61
2023/12/21 09:39:21;;;;;;;;;;;3.10;99.90;;;;;;5008656;28;19925;-58
2023/12/21 09:41:49;;;;;;;;;;;3.10;99.90;;;;;;5009581;28;20575;-60
2023/12/21 09:44:29;;;;;;;;;;;3.10;99.90;;;;;;5008621;28;20459;-59
2023/12/21 09:46:56;;;;;;;;;;;3.00;99.90;;;;;;5015385;28;19929;-61
2023/12/21 09:49:23;;;;;;;;;;;3.00;99.90;;;;;;5000138;28;19933;-60
2023/12/21 09:51:51;;;;;;;;;;;3.00;99.90;;;;;;5014485;28;19968;-59
2023/12/21 09:54:18;;;;;;;;;;;3.00;99.90;;;;;;5003134;28;19932;-58
2023/12/21 09:56:46;;;;;;;;;;;3.00;99.90;;;;;;5004651;28;19973;-65
2023/12/21 09:59:13;;;;;;;;;;;3.00;99.90;;;;;;5000136;28;19933;-60
2023/12/21 10:01:40;;;;;;;;;;;3.00;99.90;;;;;;5006243;28;19929;-58
2023/12/21 10:04:11;;;;;;;;;;;3.00;99.90;;;;;;5007979;28;19952;-59
2023/12/21 10:06:38;;;;;;;;;;;3.00;99.90;;;;;;5004981;28;20032;-60
2023/12/21 10:09:05;;;;;;;;;;;3.00;99.90;;;;;;5014032;28;19969;-57
2023/12/21 10:11:32;;;;;;;;;;;3.00;99.90;;;;;;5016487;28;19933;-59
2023/12/21 10:14:01;;;;;;;;;;;3.00;99.90;;;;;;4996850;28;20363;-59
2023/12/21 10:16:28;;;;;;;;;;;3.00;99.90;;;;;;5002850;28;19936;-59
2023/12/21 10:18:55;;;;;;;;;;;3.00;99.90;;;;;;5005008;28;19925;-63
2023/12/21 10:21:22;;;;;;;;;;;3.00;99.90;;;;;;5003231;28;19933;-60
2023/12/21 10:23:49;;;;;;;;;;;3.00;99.90;;;;;;5008011;28;19936;-57
2023/12/21 10:26:16;;;;;;;;;;;3.00;99.90;;;;;;5009532;28;20745;-59
2023/12/21 10:28:45;;;;;;;;;;;3.00;99.90;;;;;;5010993;28;20349;-59
2023/12/21 10:31:13;;;;;;;;;;;3.00;99.90;;;;;;5010921;28;19933;-58
2023/12/21 10:33:41;;;;;;;;;;;3.00;99.90;;;;;;5016711;28;20382;-64
2023/12/21 10:36:08;;;;;;;;;;;3.00;99.90;;;;;;5009885;28;19929;-58
2023/12/21 10:38:34;;;;;;;;;;;3.00;99.90;;;;;;5004766;28;20574;-59
2023/12/21 10:41:05;;;;;;;;;;;2.90;99.90;;;;;;5006748;28;20012;-59
2023/12/21 10:43:34;;;;;;;;;;;2.90;99.90;;;;;;5008242;28;19926;-59
2023/12/21 10:46:02;;;;;;;;;;;2.90;99.90;;;;;;5004419;28;19937;-58
2023/12/21 10:48:31;;;;;;;;;;;2.90;99.90;;;;;;5000404;28;19937;-59
2023/12/21 10:50:58;;;;;;;;;;;2.90;99.90;;;;;;5011148;28;19929;-61
2023/12/21 10:53:27;;;;;;;;;;;2.90;99.90;;;;;;5009976;28;19930;-59
2023/12/21 10:55:54;;;;;;;;;;;2.90;99.90;;;;;;5015058;28;20286;-60
2023/12/21 10:58:22;;;;;;;;;;;2.90;99.90;;;;;;5012473;28;20029;-58
2023/12/21 11:00:50;;;;;;;;;;;2.90;99.90;;;;;;5018305;28;20028;-61
2023/12/21 11:03:19;;;;;;;;;;;2.90;99.90;;;;;;5015219;28;19925;-63
2023/12/21 11:05:46;;;;;;;;;;;2.90;99.90;;;;;;5004676;28;19925;-60
2023/12/21 11:08:13;;;;;;;;;;;2.90;99.90;;;;;;5011843;28;19952;-58
2023/12/21 11:10:40;;;;;;;;;;;2.90;99.90;;;;;;5010496;28;19986;-60
2023/12/21 11:13:07;;;;;;;;;;;2.90;99.90;;;;;;5012852;28;19936;-59
2023/12/21 11:15:35;;;;;;;;;;;2.80;99.90;;;;;;5014117;28;19981;-60
2023/12/21 11:18:16;;;;;;;;;;;2.80;99.90;;;;;;5011469;28;20004;-58
2023/12/21 11:20:45;;;;;;;;;;;2.90;99.90;;;;;;5019607;28;20016;-58
2023/12/21 11:23:16;;;;;;;;;;;2.80;99.90;;;;;;5003845;28;19926;-61
2023/12/21 11:25:43;;;;;;;;;;;2.90;99.90;;;;;;5014925;28;19980;-59
2023/12/21 11:28:10;;;;;;;;;;;2.90;99.90;;;;;;5009002;28;19930;-60
2023/12/21 11:30:37;;;;;;;;;;;2.80;99.90;;;;;;5007934;28;19933;-59
2023/12/21 11:33:05;;;;;;;;;;;2.80;99.90;;;;;;5008098;28;19937;-58
2023/12/21 11:35:32;;;;;;;;;;;2.70;99.90;;;;;;5008976;28;19925;-62
2023/12/21 11:37:59;;;;;;;;;;;2.60;99.90;;;;;;5011253;28;20047;-59
2023/12/21 11:40:27;;;;;;;;;;;2.60;99.90;;;;;;5012478;28;19936;-61
2023/12/21 11:42:57;;;;;;;;;;;2.50;99.90;;;;;;5013534;28;19926;-60
2023/12/21 11:45:26;;;;;;;;;;;2.50;99.90;;;;;;5015833;28;19937;-59
2023/12/21 11:47:56;;;;;;;;;;;2.40;99.90;;;;;;5008621;28;19937;-59
2023/12/21 11:50:26;;;;;;;;;;;2.40;99.90;;;;;;5014013;28;19944;-59
2023/12/21 11:53:09;;;;;;;;;;;2.40;99.90;;;;;;5005402;28;20036;-60
2023/12/21 11:55:43;;;;;;;;;;;2.40;99.90;;;;;;5009725;28;20023;-65
2023/12/21 11:58:19;;;;;;;;;;;2.30;99.90;;;;;;5008247;28;19926;-59
2023/12/21 12:00:51;;;;;;;;;;;2.30;99.90;;;;;;5008487;28;19925;-65
2023/12/21 12:03:19;;;;;;;;;;;2.30;99.90;;;;;;5007990;28;19933;-60
2023/12/21 12:05:47;;;;;;;;;;;2.30;99.90;;;;;;5005408;28;19969;-58
2023/12/21 12:08:19;;;;;;;;;;;2.30;99.90;;;;;;5012023;28;20020;-60
2023/12/21 12:10:45;;;;;;;;;;;2.20;99.90;;;;;;5008496;28;20025;-60
2023/12/21 12:13:16;;;;;;;;;;;2.20;99.90;;;;;;5007160;28;19999;-59
2023/12/21 12:15:44;;;;;;;;;;;2.20;99.90;;;;;;5007914;28;20034;-59
2023/12/21 12:18:11;;;;;;;;;;;2.20;99.90;;;;;;5006804;28;19934;-59
2023/12/21 12:20:42;;;;;;;;;;;2.20;99.90;;;;;;5011016;28;20327;-59
2023/12/21 12:23:09;;;;;;;;;;;2.10;99.90;;;;;;5014525;28;20359;-58
2023/12/21 12:25:36;;;;;;;;;;;2.10;99.90;;;;;;5012677;28;19935;-62
2023/12/21 12:28:14;;;;;;;;;;;2.20;99.90;;;;;;5012118;28;19933;-58
2023/12/21 12:30:42;;;;;;;;;;;2.20;99.90;;;;;;4998219;28;19991;-58
2023/12/21 12:33:11;;;;;;;;;;;2.20;99.90;;;;;;5014111;28;19930;-59
2023/12/21 12:35:39;;;;;;;;;;;2.20;99.90;;;;;;5014134;28;19937;-60
2023/12/21 12:38:06;;;;;;;;;;;2.10;99.90;;;;;;5012066;28;19974;-58
2023/12/21 12:40:34;;;;;;;;;;;2.10;99.90;;;;;;5006760;28;19936;-59
2023/12/21 12:43:01;;;;;;;;;;;2.10;99.90;;;;;;5003993;28;19933;-58
2023/12/21 12:45:29;;;;;;;;;;;2.10;99.90;;;;;;5009049;28;19988;-61
2023/12/21 12:47:56;;;;;;;;;;;2.20;99.90;;;;;;5005852;28;19929;-59
2023/12/21 12:50:23;;;;;;;;;;;2.20;99.90;;;;;;5013098;28;20538;-61
2023/12/21 12:52:50;;;;;;;;;;;2.20;99.90;;;;;;5017977;28;20042;-58
2023/12/21 12:55:19;;;;;;;;;;;2.20;99.90;;;;;;5010890;28;19926;-61
2023/12/21 12:57:48;;;;;;;;;;;2.10;99.90;;;;;;5019831;28;19971;-58
2023/12/21 13:00:16;;;;;;;;;;;2.20;99.90;;;;;;5010907;28;19999;-59
2023/12/21 13:02:43;;;;;;;;;;;2.20;99.90;;;;;;5002428;28;20546;-61
2023/12/21 13:05:11;;;;;;;;;;;2.20;99.90;;;;;;5006427;28;20299;-59
2023/12/21 13:07:39;;;;;;;;;;;2.20;99.90;;;;;;5007755;28;19929;-57
2023/12/21 13:10:06;;;;;;;;;;;2.20;99.90;;;;;;5011025;28;20458;-59
2023/12/21 13:12:36;;;;;;;;;;;2.20;99.90;;;;;;5009916;28;20403;-61
2023/12/21 13:15:03;;;;;;;;;;;2.20;99.90;;;;;;5011672;28;20554;-58
2023/12/21 13:17:30;;;;;;;;;;;2.20;99.90;;;;;;5018244;28;19976;-61
2023/12/21 13:19:57;;;;;;;;;;;2.20;99.90;;;;;;5017709;28;19933;-59
2023/12/21 13:22:24;;;;;;;;;;;2.20;99.90;;;;;;5019769;28;19968;-58
2023/12/21 13:24:51;;;;;;;;;;;2.20;99.90;;;;;;5008195;28;20000;-59
2023/12/21 13:27:18;;;;;;;;;;;2.20;99.90;;;;;;4994038;28;20004;-59
2023/12/21 13:29:46;;;;;;;;;;;2.20;99.90;;;;;;5008350;28;19929;-60
2023/12/21 13:32:13;;;;;;;;;;;2.20;99.90;;;;;;5008451;28;19929;-60
2023/12/21 13:34:40;;;;;;;;;;;2.20;99.90;;;;;;5010234;28;20342;-58
2023/12/21 13:37:08;;;;;;;;;;;2.20;99.90;;;;;;5014394;28;19929;-58
2023/12/21 13:39:35;;;;;;;;;;;2.10;99.90;;;;;;5012003;28;19957;-60
2023/12/21 13:42:02;;;;;;;;;;;2.20;99.90;;;;;;5018767;28;19972;-61
2023/12/21 13:44:30;;;;;;;;;;;2.10;99.90;;;;;;5013975;28;19969;-60
2023/12/21 13:46:58;;;;;;;;;;;2.20;99.90;;;;;;5009707;28;19930;-61
2023/12/21 13:49:26;;;;;;;;;;;2.20;99.90;;;;;;4998214;28;19925;-59
2023/12/21 13:51:53;;;;;;;;;;;2.20;99.90;;;;;;5007734;28;20032;-61
2023/12/21 13:54:23;;;;;;;;;;;2.20;99.90;;;;;;5011400;28;20036;-62
2023/12/21 13:56:50;;;;;;;;;;;2.20;99.90;;;;;;5011358;28;19929;-62
2023/12/21 13:59:33;;;;;;;;;;;2.20;99.90;;;;;;5009564;28;19929;-60
2023/12/21 14:02:00;;;;;;;;;;;2.20;99.90;;;;;;5013089;28;19936;-60
2023/12/21 14:04:27;;;;;;;;;;;2.30;99.90;;;;;;5015455;28;19925;-59
2023/12/21 14:06:54;;;;;;;;;;;2.30;99.90;;;;;;5014708;28;19932;-61
2023/12/21 14:09:21;;;;;;;;;;;2.30;99.90;;;;;;5012558;28;19929;-59
2023/12/21 14:11:48;;;;;;;;;;;2.30;99.90;;;;;;5005338;28;19930;-60
2023/12/21 14:14:15;;;;;;;;;;;2.40;99.90;;;;;;5008631;28;20562;-64
2023/12/21 14:16:42;;;;;;;;;;;2.40;99.90;;;;;;5009299;28;20464;-59
2023/12/21 14:19:09;;;;;;;;;;;2.40;99.90;;;;;;5008782;28;20446;-64
2023/12/21 14:21:36;;;;;;;;;;;2.40;99.90;;;;;;5011491;28;19933;-59
2023/12/21 14:24:03;;;;;;;;;;;2.50;99.90;;;;;;5010046;28;20349;-59
2023/12/21 14:26:29;;;;;;;;;;;2.40;99.90;;;;;;5014026;28;19972;-60
2023/12/21 14:28:56;;;;;;;;;;;2.50;99.90;;;;;;5017667;28;19979;-60
2023/12/21 14:31:24;;;;;;;;;;;2.50;99.90;;;;;;5011969;28;19929;-58